Airfield :







YOU CAN JOIN US ON...

 
LOGIN :

Register | Disclaimer

   EN    FR    IT 

 









Legend :    VFR   Marginal VFR   IFR   Intensive IFR   Very Intensive IFR
Visi :
Ceiling :
>= 8 km
>= 3000ft
5 to 8 km
1000 to 3000 ft
1500m to 5 km
500 to 1000 ft
800 to 1500m
200 to 500 ft
< 800m
< 200 ft
Symbols :   Thunderstorms  Fog  Heavy snow  Heavy precipitations  Wind > 20 kt






- Airport Elevation : 180 ft
- IATA code : YZV


CYZV - Sept-Iles

CURRENT METAR :
  • 261700Z 21008KT 30SM BKN045 BKN070 BKN200 21/12 A2996 RMK SC5AC1CI1 SLP147 DENSITY ALT 1000FT

EXPIRED METARs :
  • 261600Z 25007KT 30SM BKN041 BKN200 19/12 A2996 RMK SC5CI1 SLP150 DENSITY ALT 700FT
  • 261500Z 26005KT 30SM FEW035 OVC140 19/12 A2996 RMK CU2AC6 SLP149 DENSITY ALT 700FT

TAF TAF CYZV
Valid from the 26 at 18:00 until the 27 at 18:00 UTC


261730Z 2618/2718 26008KT P6SM BKN030 OVC140
TEMPO 2618/2621 P6SM -SHRA OVC040
FM262100 30008KT P6SM BKN160
BECMG 2623/2701 36005KT
FM270300 02005KT P6SM BKN160
BECMG 2711/2713 09006KT
FM271600 09010KT P6SM BKN030 OVC080 RMK NXT FCST BY 270000Z
CZUL FIR / North America



MET'MAP, your aeronautical weather chart ! - Copyright ORBIFLY December 2007 - Disclaimer

ORBIFLY MET'MAP TEAM :

Programming & Development : Alexandra Zaïnal
Concept & original design : Baudouin d'Aumeries
Assistance for programming : Marc-Olivier Méhu
Technical & hardware support : Manuel Goepfert

Contact : metmap@orbifly.com




SOURCES & CREDITS :

   NOAA